createdAt,value
2022-10-01T00:02:08.518Z,100.00
2022-10-01T00:05:09.987Z,100.00
2022-10-01T00:08:14.431Z,100.00
2022-10-01T00:11:22.937Z,100.00
2022-10-01T00:14:24.373Z,100.00
2022-10-01T00:17:25.817Z,100.00
2022-10-01T00:20:27.232Z,100.00
2022-10-01T00:23:28.641Z,100.00
2022-10-01T00:26:33.760Z,100.00
2022-10-01T00:29:35.307Z,100.00
2022-10-01T00:32:36.975Z,100.00
2022-10-01T00:35:38.399Z,100.00
2022-10-01T00:38:39.966Z,100.00
2022-10-01T00:41:41.855Z,100.00
2022-10-01T00:44:43.757Z,100.00
2022-10-01T00:47:49.693Z,100.00
2022-10-01T00:50:52.025Z,100.00
2022-10-01T00:54:01.250Z,100.00
2022-10-01T00:57:05.231Z,100.00
2022-10-01T01:00:10.069Z,100.00
2022-10-01T01:03:12.544Z,100.00
2022-10-01T01:06:14.001Z,100.00
2022-10-01T01:09:15.469Z,100.00
2022-10-01T01:12:35.652Z,100.00
2022-10-01T01:15:45.358Z,100.00
2022-10-01T01:18:56.314Z,100.00
2022-10-01T01:22:03.091Z,100.00
2022-10-01T01:25:16.392Z,100.00
2022-10-01T01:28:32.542Z,100.00
2022-10-01T01:31:41.742Z,100.00
2022-10-01T01:34:46.616Z,100.00
2022-10-01T01:37:55.108Z,100.00
2022-10-01T01:41:00.756Z,100.00
2022-10-01T01:44:05.140Z,100.00
2022-10-01T01:47:08.997Z,100.00
2022-10-01T01:50:12.827Z,100.00
2022-10-01T01:53:14.996Z,100.00
2022-10-01T01:56:17.263Z,100.00
2022-10-01T01:59:18.853Z,100.00
2022-10-01T02:02:26.304Z,100.00
2022-10-01T02:05:37.549Z,100.00
2022-10-01T02:09:06.869Z,100.00
2022-10-01T02:12:17.721Z,100.00
2022-10-01T02:15:27.875Z,100.00
2022-10-01T02:18:29.229Z,100.00
2022-10-01T02:21:41.453Z,100.00
2022-10-01T02:24:54.482Z,100.00
2022-10-01T02:27:59.594Z,100.00
2022-10-01T02:31:02.364Z,100.00
2022-10-01T02:34:12.337Z,100.00
2022-10-01T02:37:15.629Z,100.00
2022-10-01T02:40:22.430Z,100.00
2022-10-01T02:43:29.514Z,100.00
2022-10-01T02:46:43.295Z,100.00
2022-10-01T02:49:44.771Z,100.00
2022-10-01T02:52:52.877Z,100.00
2022-10-01T02:55:57.193Z,100.00
2022-10-01T02:58:58.576Z,100.00
2022-10-01T03:02:00.195Z,100.00
2022-10-01T03:05:01.817Z,100.00
2022-10-01T03:08:03.331Z,100.00
2022-10-01T03:11:04.745Z,100.00
2022-10-01T03:14:06.202Z,100.00
2022-10-01T03:17:07.691Z,100.00
2022-10-01T03:20:09.819Z,100.00
2022-10-01T03:23:11.240Z,100.00
2022-10-01T03:26:12.678Z,100.00
2022-10-01T03:29:14.091Z,100.00
2022-10-01T03:32:16.022Z,100.00
2022-10-01T03:35:17.423Z,100.00
2022-10-01T03:38:18.831Z,100.00
2022-10-01T03:41:20.274Z,100.00
2022-10-01T03:44:21.709Z,100.00
2022-10-01T03:47:23.137Z,100.00
2022-10-01T03:50:24.583Z,100.00
2022-10-01T03:53:27.372Z,100.00
2022-10-01T03:56:28.897Z,100.00
2022-10-01T03:59:30.313Z,100.00
2022-10-01T04:02:31.885Z,100.00
2022-10-01T04:05:33.417Z,100.00
2022-10-01T04:08:34.813Z,100.00
2022-10-01T04:11:37.306Z,100.00
2022-10-01T04:14:38.930Z,100.00
2022-10-01T04:17:43.879Z,100.00
2022-10-01T04:20:48.301Z,100.00
2022-10-01T04:23:49.725Z,100.00
2022-10-01T04:26:51.588Z,100.00
2022-10-01T04:29:53.183Z,100.00
2022-10-01T04:32:54.736Z,100.00
2022-10-01T04:35:56.137Z,100.00
2022-10-01T04:39:01.737Z,100.00
2022-10-01T04:42:04.150Z,100.00
2022-10-01T04:45:06.489Z,100.00
2022-10-01T04:48:07.902Z,100.00
2022-10-01T04:51:09.398Z,100.00
2022-10-01T04:54:10.798Z,100.00
2022-10-01T04:57:12.196Z,100.00
2022-10-01T05:00:16.780Z,100.00
2022-10-01T05:03:18.236Z,100.00
2022-10-01T05:06:19.633Z,100.00
2022-10-01T05:09:21.049Z,100.00
2022-10-01T05:12:24.685Z,100.00
2022-10-01T05:15:26.210Z,100.00
2022-10-01T05:18:27.626Z,100.00
2022-10-01T05:21:29.093Z,100.00
2022-10-01T05:24:30.503Z,100.00
2022-10-01T05:27:31.894Z,100.00
2022-10-01T05:30:34.260Z,100.00
2022-10-01T05:33:35.657Z,100.00
2022-10-01T05:36:37.071Z,100.00
2022-10-01T05:39:38.603Z,100.00
2022-10-01T05:42:45.503Z,100.00
2022-10-01T05:45:46.973Z,100.00
2022-10-01T05:48:49.063Z,100.00
2022-10-01T05:51:50.497Z,100.00
2022-10-01T05:54:51.872Z,100.00
2022-10-01T05:58:01.957Z,100.00
2022-10-01T06:01:03.488Z,100.00
2022-10-01T06:04:04.925Z,100.00
2022-10-01T06:07:06.369Z,100.00
2022-10-01T06:10:08.341Z,100.00
2022-10-01T06:13:09.775Z,100.00
2022-10-01T06:16:11.875Z,100.00
2022-10-01T06:19:13.375Z,100.00
2022-10-01T06:22:14.808Z,100.00
2022-10-01T06:25:16.344Z,100.00
2022-10-01T06:28:17.824Z,100.00
2022-10-01T06:31:19.833Z,100.00
2022-10-01T06:34:21.320Z,100.00
2022-10-01T06:37:22.776Z,100.00
2022-10-01T06:40:24.628Z,100.00
2022-10-01T06:43:28.299Z,100.00
2022-10-01T06:46:29.694Z,100.00
2022-10-01T06:49:31.086Z,100.00
2022-10-01T06:52:32.480Z,100.00
2022-10-01T06:55:35.849Z,100.00
2022-10-01T06:58:37.319Z,100.00
2022-10-01T07:01:39.160Z,100.00
2022-10-01T07:04:40.794Z,100.00
2022-10-01T07:07:42.921Z,100.00
2022-10-01T07:10:44.481Z,100.00
2022-10-01T07:13:45.980Z,100.00
2022-10-01T07:16:47.455Z,100.00
2022-10-01T07:19:48.982Z,100.00
2022-10-01T07:22:56.992Z,100.00
2022-10-01T07:25:58.443Z,100.00
2022-10-01T07:28:59.856Z,97.12
2022-10-01T07:32:01.878Z,100.00
2022-10-01T07:35:03.929Z,100.00
2022-10-01T07:38:05.342Z,100.00
2022-10-01T07:41:06.783Z,100.00
2022-10-01T07:44:08.421Z,100.00
2022-10-01T07:47:11.398Z,100.00
2022-10-01T07:50:12.845Z,100.00
2022-10-01T07:53:14.291Z,100.00
2022-10-01T07:56:15.703Z,100.00
2022-10-01T07:59:17.158Z,100.00
2022-10-01T08:02:18.583Z,100.00
2022-10-01T08:05:23.041Z,100.00
2022-10-01T08:08:24.541Z,100.00
2022-10-01T08:11:25.946Z,100.00
2022-10-01T08:14:27.365Z,100.00
2022-10-01T08:17:29.741Z,100.00
2022-10-01T08:20:31.804Z,100.00
2022-10-01T08:23:33.729Z,97.50
2022-10-01T08:26:35.563Z,95.51
2022-10-01T08:29:36.991Z,98.96
2022-10-01T08:32:38.405Z,100.00
2022-10-01T08:35:40.404Z,98.01
2022-10-01T08:38:45.486Z,100.00
2022-10-01T08:41:49.847Z,95.97
2022-10-01T08:44:52.688Z,97.67
2022-10-01T08:48:29.627Z,98.29
2022-10-01T08:51:35.058Z,97.70
2022-10-01T08:54:45.595Z,97.51
2022-10-01T08:57:53.266Z,100.00
2022-10-01T09:00:54.819Z,99.84
2022-10-01T09:03:56.582Z,100.00
2022-10-01T09:07:13.255Z,100.00
2022-10-01T09:10:43.662Z,100.00
2022-10-01T09:14:12.189Z,100.00
2022-10-01T09:17:25.796Z,97.73
2022-10-01T09:20:35.078Z,96.65
2022-10-01T09:23:46.274Z,90.83
2022-10-01T09:26:48.069Z,91.45
2022-10-01T09:33:10.955Z,96.16
2022-10-01T09:36:26.252Z,95.71
2022-10-01T09:39:34.625Z,86.45
2022-10-01T09:42:36.176Z,80.15
2022-10-01T09:45:38.612Z,78.20
2022-10-01T09:49:02.012Z,82.19
2022-10-01T09:52:10.669Z,86.91
2022-10-01T09:55:18.173Z,88.64
2022-10-01T09:58:22.909Z,88.52
2022-10-01T10:01:37.789Z,87.25
2022-10-01T10:04:39.588Z,86.65
2022-10-01T10:07:46.082Z,78.09
2022-10-01T10:10:51.484Z,84.09
2022-10-01T10:13:58.160Z,84.47
2022-10-01T10:17:12.222Z,83.80
2022-10-01T10:20:25.309Z,84.26
2022-10-01T10:23:27.441Z,85.13
2022-10-01T10:26:37.604Z,87.73
2022-10-01T10:29:39.448Z,87.44
2022-10-01T10:32:42.652Z,83.73
2022-10-01T10:35:44.110Z,81.01
2022-10-01T10:38:52.015Z,79.29
2022-10-01T10:41:53.806Z,77.40
2022-10-01T10:45:00.358Z,73.68
2022-10-01T10:48:04.350Z,77.00
2022-10-01T10:51:06.236Z,73.67
2022-10-01T10:54:18.146Z,74.18
2022-10-01T10:57:26.960Z,74.42
2022-10-01T11:00:28.436Z,73.57
2022-10-01T11:03:32.151Z,72.94
2022-10-01T11:06:33.891Z,72.34
2022-10-01T11:10:19.728Z,70.33
2022-10-01T11:13:30.296Z,68.56
2022-10-01T11:16:34.964Z,72.60
2022-10-01T11:19:50.201Z,74.54
2022-10-01T11:23:22.574Z,76.97
2022-10-01T11:26:41.056Z,75.43
2022-10-01T11:30:00.480Z,70.55
2022-10-01T11:33:15.781Z,73.24
2022-10-01T11:36:33.546Z,73.74
2022-10-01T11:39:38.378Z,72.16
2022-10-01T11:42:42.088Z,68.19
2022-10-01T11:45:48.357Z,70.52
2022-10-01T11:49:08.594Z,64.96
2022-10-01T11:52:27.202Z,69.43
2022-10-01T11:55:44.016Z,68.54
2022-10-01T11:59:09.644Z,67.78
2022-10-01T12:02:32.801Z,70.12
2022-10-01T12:05:34.845Z,72.65
2022-10-01T12:08:37.404Z,72.53
2022-10-01T12:11:48.330Z,71.68
2022-10-01T12:15:06.834Z,70.34
2022-10-01T12:18:18.553Z,68.53
2022-10-01T12:21:34.594Z,70.24
2022-10-01T12:24:40.626Z,67.19
2022-10-01T12:27:57.287Z,65.93
2022-10-01T12:31:20.560Z,68.01
2022-10-01T12:34:43.821Z,68.83
2022-10-01T12:37:57.479Z,72.15
2022-10-01T12:41:38.874Z,70.47
2022-10-01T12:45:05.300Z,69.27
2022-10-01T12:48:36.134Z,67.68
2022-10-01T12:51:42.536Z,69.72
2022-10-01T12:54:57.897Z,69.96
2022-10-01T12:58:37.792Z,69.71
2022-10-01T13:01:54.881Z,70.42
2022-10-01T13:05:06.130Z,69.42
2022-10-01T13:08:33.616Z,68.50
2022-10-01T13:11:55.172Z,68.66
2022-10-01T13:14:57.879Z,69.23
2022-10-01T13:18:15.048Z,67.65
2022-10-01T13:21:33.681Z,67.96
2022-10-01T13:24:58.130Z,67.76
2022-10-01T13:28:03.108Z,65.99
2022-10-01T13:31:16.625Z,65.71
2022-10-01T13:34:33.990Z,67.66
2022-10-01T13:37:39.837Z,67.57
2022-10-01T13:40:41.776Z,65.94
2022-10-01T13:43:52.162Z,65.92
2022-10-01T13:47:00.956Z,64.54
2022-10-01T13:50:07.365Z,64.76
2022-10-01T13:53:20.203Z,68.70
2022-10-01T13:56:34.995Z,70.60
2022-10-01T13:59:37.646Z,71.19
2022-10-01T14:02:42.069Z,70.86
2022-10-01T14:05:44.213Z,73.08
2022-10-01T14:09:04.376Z,70.22
2022-10-01T14:12:16.705Z,69.89
2022-10-01T14:15:22.043Z,70.31
2022-10-01T14:18:28.309Z,70.05
2022-10-01T14:21:55.377Z,72.75
2022-10-01T14:25:02.687Z,73.00
2022-10-01T14:28:12.237Z,71.04
2022-10-01T14:31:36.314Z,69.22
2022-10-01T14:34:37.659Z,69.39
2022-10-01T14:37:40.164Z,68.04
2022-10-01T14:40:43.569Z,69.16
2022-10-01T14:43:45.446Z,71.93
2022-10-01T14:46:46.879Z,68.58
2022-10-01T14:49:49.452Z,69.23
2022-10-01T14:52:51.118Z,69.18
2022-10-01T14:55:55.958Z,69.02
2022-10-01T14:59:02.252Z,68.95
2022-10-01T15:02:17.699Z,68.49
2022-10-01T15:05:20.385Z,68.77
2022-10-01T15:08:24.703Z,70.48
2022-10-01T15:11:28.753Z,71.38
2022-10-01T15:14:30.155Z,71.45
2022-10-01T15:17:31.642Z,74.96
2022-10-01T15:20:34.138Z,76.73
2022-10-01T15:23:39.470Z,76.23
2022-10-01T15:26:40.937Z,76.96
2022-10-01T15:29:43.799Z,76.36
2022-10-01T15:32:47.315Z,76.46
2022-10-01T15:35:49.273Z,79.61
2022-10-01T15:38:50.945Z,76.35
2022-10-01T15:41:54.093Z,76.63
2022-10-01T15:45:07.766Z,74.69
2022-10-01T15:48:31.005Z,72.45
2022-10-01T15:51:32.449Z,73.02
2022-10-01T15:54:34.760Z,73.17
2022-10-01T15:57:38.147Z,72.26
2022-10-01T16:00:53.114Z,72.31
2022-10-01T16:03:55.854Z,75.02
2022-10-01T16:06:57.310Z,74.93
2022-10-01T16:10:12.113Z,76.18
2022-10-01T16:13:33.754Z,76.40
2022-10-01T16:16:35.388Z,76.61
2022-10-01T16:19:37.072Z,77.54
2022-10-01T16:22:38.492Z,77.10
2022-10-01T16:25:44.479Z,76.11
2022-10-01T16:28:45.924Z,77.12
2022-10-01T16:31:47.563Z,78.25
2022-10-01T16:34:49.257Z,78.70
2022-10-01T16:37:52.929Z,79.75
2022-10-01T16:40:54.420Z,80.96
2022-10-01T16:43:57.105Z,81.75
2022-10-01T16:46:58.476Z,83.15
2022-10-01T16:49:59.896Z,82.68
2022-10-01T16:53:01.291Z,83.23
2022-10-01T16:56:02.740Z,84.05
2022-10-01T16:59:04.147Z,83.89
2022-10-01T17:02:11.314Z,83.58
2022-10-01T17:05:19.365Z,83.53
2022-10-01T17:08:20.803Z,83.62
2022-10-01T17:11:24.905Z,84.17
2022-10-01T17:14:26.234Z,85.10
2022-10-01T17:17:27.618Z,85.39
2022-10-01T17:20:29.608Z,86.19
2022-10-01T17:23:31.025Z,87.49
2022-10-01T17:26:32.643Z,88.28
2022-10-01T17:29:34.293Z,89.56
2022-10-01T17:32:35.814Z,90.81
2022-10-01T17:35:41.532Z,91.29
2022-10-01T17:38:42.926Z,91.59
2022-10-01T17:41:44.337Z,93.21
2022-10-01T17:44:45.800Z,91.94
2022-10-01T17:47:48.761Z,91.27
2022-10-01T17:51:08.197Z,90.91
2022-10-01T17:54:09.609Z,91.92
2022-10-01T17:57:11.165Z,92.39
2022-10-01T18:00:12.719Z,93.05
2022-10-01T18:03:14.211Z,93.14
2022-10-01T18:06:15.655Z,93.63
2022-10-01T18:09:17.194Z,94.62
2022-10-01T18:12:18.638Z,95.06
2022-10-01T18:15:20.093Z,95.72
2022-10-01T18:21:42.932Z,93.24
2022-10-01T18:24:44.517Z,93.51
2022-10-01T18:27:47.441Z,93.30
2022-10-01T18:30:54.101Z,92.89
2022-10-01T18:33:59.377Z,92.85
2022-10-01T18:37:06.740Z,93.50
2022-10-01T18:40:15.930Z,92.54
2022-10-01T18:43:25.371Z,91.76
2022-10-01T18:46:40.913Z,91.19
2022-10-01T18:49:48.790Z,91.69
2022-10-01T18:53:06.978Z,91.89
2022-10-01T18:56:35.078Z,92.35
2022-10-01T18:59:58.135Z,92.98
2022-10-01T19:03:18.276Z,92.71
2022-10-01T19:06:31.577Z,93.63
2022-10-01T19:09:58.149Z,94.34
2022-10-01T19:13:15.637Z,93.58
2022-10-01T19:16:26.117Z,94.48
2022-10-01T19:19:33.721Z,94.64
2022-10-01T19:22:58.939Z,94.24
2022-10-01T19:26:09.557Z,94.12
2022-10-01T19:29:27.616Z,94.22
2022-10-01T19:32:47.545Z,94.76
2022-10-01T19:35:52.368Z,96.30
2022-10-01T19:38:57.840Z,96.61
2022-10-01T19:42:29.418Z,96.42
2022-10-01T19:45:42.258Z,98.32
2022-10-01T19:48:50.436Z,98.20
2022-10-01T19:51:57.670Z,98.67
2022-10-01T19:54:59.892Z,98.93
2022-10-01T19:58:17.197Z,99.10
2022-10-01T20:01:20.871Z,98.90
2022-10-01T20:04:40.584Z,99.27
2022-10-01T20:08:20.339Z,100.00
2022-10-01T20:11:31.453Z,100.00
2022-10-01T20:14:54.846Z,100.00
2022-10-01T20:18:10.735Z,100.00
2022-10-01T20:21:37.232Z,100.00
2022-10-01T20:25:03.463Z,100.00
2022-10-01T20:28:10.999Z,100.00
2022-10-01T20:31:22.165Z,100.00
2022-10-01T20:34:29.585Z,100.00
2022-10-01T20:37:46.851Z,100.00
2022-10-01T20:40:52.895Z,100.00
2022-10-01T20:44:00.262Z,100.00
2022-10-01T20:47:12.251Z,100.00
2022-10-01T20:50:19.785Z,100.00
2022-10-01T20:53:52.821Z,100.00
2022-10-01T20:57:15.707Z,100.00
2022-10-01T21:00:21.314Z,100.00
2022-10-01T21:03:41.704Z,100.00
2022-10-01T21:06:47.468Z,100.00
2022-10-01T21:09:52.845Z,100.00
2022-10-01T21:13:05.288Z,100.00
2022-10-01T21:16:44.821Z,100.00
2022-10-01T21:19:55.828Z,100.00
2022-10-01T21:23:12.948Z,100.00
2022-10-01T21:26:19.136Z,100.00
2022-10-01T21:29:35.782Z,100.00
2022-10-01T21:32:53.052Z,100.00
2022-10-01T21:36:01.575Z,100.00
2022-10-01T21:39:10.790Z,100.00
2022-10-01T21:42:17.319Z,100.00
2022-10-01T21:45:45.336Z,100.00
2022-10-01T21:49:03.900Z,100.00
2022-10-01T21:52:31.439Z,100.00
2022-10-01T21:56:17.897Z,100.00
2022-10-01T21:59:49.396Z,100.00
2022-10-01T22:03:02.639Z,100.00
2022-10-01T22:06:19.898Z,100.00
2022-10-01T22:09:36.963Z,100.00
2022-10-01T22:12:42.075Z,100.00
2022-10-01T22:15:45.104Z,100.00
2022-10-01T22:18:51.302Z,100.00
2022-10-01T22:22:16.697Z,100.00
2022-10-01T22:25:18.178Z,100.00
2022-10-01T22:28:26.848Z,100.00
2022-10-01T22:31:34.805Z,100.00
2022-10-01T22:34:43.789Z,100.00
2022-10-01T22:37:54.993Z,100.00
2022-10-01T22:40:59.386Z,100.00
2022-10-01T22:44:06.250Z,100.00
2022-10-01T22:47:35.408Z,100.00
2022-10-01T22:51:15.976Z,100.00
2022-10-01T22:54:39.022Z,100.00
2022-10-01T22:57:59.143Z,100.00
2022-10-01T23:01:24.145Z,100.00
2022-10-01T23:04:48.952Z,100.00
2022-10-01T23:07:56.073Z,100.00
2022-10-01T23:11:03.374Z,100.00
2022-10-01T23:14:35.376Z,100.00
2022-10-01T23:17:51.724Z,100.00
2022-10-01T23:21:09.249Z,100.00
2022-10-01T23:24:30.872Z,100.00
2022-10-01T23:28:09.987Z,100.00
2022-10-01T23:31:29.526Z,100.00
2022-10-01T23:34:58.196Z,100.00
2022-10-01T23:38:08.652Z,100.00
2022-10-01T23:41:27.856Z,100.00
2022-10-01T23:44:49.221Z,100.00
2022-10-01T23:48:04.042Z,100.00
2022-10-01T23:51:16.501Z,100.00
2022-10-01T23:54:32.907Z,100.00
2022-10-01T23:57:38.881Z,100.00
